Time;durP1;ratioP1;P1;durP2;ratioP2;P2;SDS_P1;SDS_P2;PMS_P1;PMS_P2;Temp;Humidity;BMP_temperature;BMP_pressure;BME280_temperature;BME280_humidity;BME280_pressure;Samples;Min_cycle;Max_cycle;Signal;HPM_P1;HPM_P2
2022/06/01 00:02:13;;;;;;;6.30;5.50;;;;;;;;;;5034356;28;20205;-72
2022/06/01 00:04:42;;;;;;;5.63;5.13;;;;;;;;;;5015617;28;20691;-72
2022/06/01 00:07:11;;;;;;;8.47;5.63;;;;;;;;;;5034925;28;20207;-72
2022/06/01 00:09:39;;;;;;;5.80;5.10;;;;;;;;;;5035239;28;20229;-72
2022/06/01 00:12:09;;;;;;;5.77;5.17;;;;;;;;;;5032927;28;20258;-72
2022/06/01 00:14:37;;;;;;;5.87;5.10;;;;;;;;;;5034639;28;20235;-72
2022/06/01 00:17:07;;;;;;;5.80;5.20;;;;;;;;;;5032970;28;20211;-72
2022/06/01 00:19:36;;;;;;;6.40;5.80;;;;;;;;;;5032123;28;20211;-72
2022/06/01 00:22:16;;;;;;;5.97;5.37;;;;;;;;;;5030502;28;20580;-73
2022/06/01 00:24:46;;;;;;;6.50;5.60;;;;;;;;;;5033422;28;20200;-72
2022/06/01 00:27:15;;;;;;;5.70;5.20;;;;;;;;;;5033855;28;20618;-72
2022/06/01 00:29:44;;;;;;;6.73;5.67;;;;;;;;;;5034559;28;20211;-72
2022/06/01 00:32:15;;;;;;;5.93;5.30;;;;;;;;;;5031846;28;20207;-72
2022/06/01 00:34:44;;;;;;;6.20;5.60;;;;;;;;;;5034272;28;20220;-72
2022/06/01 00:37:13;;;;;;;6.60;6.00;;;;;;;;;;5032246;28;20266;-72
2022/06/01 00:39:44;;;;;;;6.40;5.80;;;;;;;;;;5034127;28;20258;-72
2022/06/01 00:42:13;;;;;;;6.93;6.23;;;;;;;;;;5032541;28;20717;-72
2022/06/01 00:44:42;;;;;;;7.40;6.43;;;;;;;;;;5034446;28;20535;-72
2022/06/01 00:47:11;;;;;;;7.50;6.90;;;;;;;;;;5033072;28;20210;-72
2022/06/01 00:49:43;;;;;;;7.53;6.73;;;;;;;;;;5033943;28;20215;-72
2022/06/01 00:52:12;;;;;;;8.73;7.03;;;;;;;;;;5032458;28;20236;-72
2022/06/01 00:54:41;;;;;;;8.17;7.37;;;;;;;;;;5022433;28;20243;-72
2022/06/01 00:57:11;;;;;;;8.67;7.70;;;;;;;;;;5033094;28;20211;-72
2022/06/01 00:59:40;;;;;;;8.40;7.60;;;;;;;;;;5034638;28;20346;-72
2022/06/01 01:02:10;;;;;;;8.33;7.50;;;;;;;;;;5032381;28;20663;-72
2022/06/01 01:04:40;;;;;;;8.87;7.90;;;;;;;;;;5033949;28;20204;-72
2022/06/01 01:07:12;;;;;;;8.30;7.60;;;;;;;;;;5031810;28;20212;-72
2022/06/01 01:09:41;;;;;;;8.83;8.00;;;;;;;;;;5033742;28;20616;-72
2022/06/01 01:12:11;;;;;;;9.27;7.80;;;;;;;;;;5023104;28;20208;-72
2022/06/01 01:15:02;;;;;;;8.70;7.80;;;;;;;;;;5031053;28;20257;-72
2022/06/01 01:17:31;;;;;;;9.23;7.47;;;;;;;;;;5030494;28;20454;-72
2022/06/01 01:19:59;;;;;;;8.57;7.77;;;;;;;;;;5033503;28;20257;-73
2022/06/01 01:22:36;;;;;;;9.77;7.90;;;;;;;;;;5031999;28;20234;-72
2022/06/01 01:25:20;;;;;;;8.97;8.07;;;;;;;;;;5033233;28;20270;-73
2022/06/01 01:27:51;;;;;;;9.27;7.80;;;;;;;;;;5029450;28;20235;-72
2022/06/01 01:30:28;;;;;;;9.20;8.10;;;;;;;;;;5032766;28;20200;-72
2022/06/01 01:32:56;;;;;;;9.23;8.43;;;;;;;;;;5032301;28;20257;-72
2022/06/01 01:35:25;;;;;;;9.73;8.60;;;;;;;;;;5032340;28;20226;-73
2022/06/01 01:37:54;;;;;;;8.97;8.07;;;;;;;;;;5032209;28;20236;-73
2022/06/01 01:40:25;;;;;;;9.57;8.57;;;;;;;;;;5032170;28;20207;-73
2022/06/01 01:42:55;;;;;;;9.63;8.30;;;;;;;;;;5030635;28;20191;-73
2022/06/01 01:45:26;;;;;;;9.50;8.53;;;;;;;;;;5031021;28;20865;-72
2022/06/01 01:47:55;;;;;;;11.27;8.73;;;;;;;;;;5032475;28;20231;-73
2022/06/01 01:50:24;;;;;;;9.50;8.40;;;;;;;;;;5031570;28;20208;-73
2022/06/01 01:52:53;;;;;;;10.17;9.13;;;;;;;;;;5030476;28;20265;-73
2022/06/01 01:55:29;;;;;;;10.63;9.13;;;;;;;;;;5032262;28;20247;-72
2022/06/01 01:57:58;;;;;;;10.50;9.50;;;;;;;;;;5032527;28;20227;-72
2022/06/01 02:00:29;;;;;;;9.90;8.90;;;;;;;;;;5031652;28;20212;-72
2022/06/01 02:03:02;;;;;;;10.23;9.17;;;;;;;;;;5026655;28;20251;-72
2022/06/01 02:08:23;;;;;;;10.00;8.93;;;;;;;;;;5027442;28;20232;-73
2022/06/01 02:13:41;;;;;;;11.83;9.07;;;;;;;;;;5032000;28;20238;-72
2022/06/01 02:16:09;;;;;;;10.37;9.30;;;;;;;;;;5032758;28;20219;-72
2022/06/01 02:18:39;;;;;;;10.50;9.30;;;;;;;;;;5032915;28;20223;-72
2022/06/01 02:21:09;;;;;;;10.30;9.30;;;;;;;;;;5029689;28;20620;-73
2022/06/01 02:23:39;;;;;;;9.63;8.70;;;;;;;;;;5031673;28;20548;-72
2022/06/01 02:26:09;;;;;;;10.00;9.07;;;;;;;;;;5031512;28;20214;-73
2022/06/01 02:28:40;;;;;;;10.47;9.40;;;;;;;;;;5032290;28;20238;-72
2022/06/01 02:31:09;;;;;;;10.50;9.40;;;;;;;;;;5028207;28;20195;-72
2022/06/01 02:33:38;;;;;;;11.87;9.67;;;;;;;;;;5032159;28;20204;-72
2022/06/01 02:36:08;;;;;;;10.37;9.37;;;;;;;;;;5029972;28;20223;-73
2022/06/01 02:38:40;;;;;;;10.30;9.30;;;;;;;;;;5030426;28;20223;-73
2022/06/01 02:42:25;;;;;;;10.37;9.37;;;;;;;;;;5029934;28;20203;-72
2022/06/01 02:44:00;;;;;;;10.90;9.80;;;;;;;;;;4681909;22;10002190;-73
2022/06/01 02:46:28;;;;;;;11.10;9.93;;;;;;;;;;5016094;28;20343;-73
2022/06/01 02:48:57;;;;;;;10.93;9.93;;;;;;;;;;5029024;28;20246;-73
2022/06/01 02:51:26;;;;;;;10.97;9.97;;;;;;;;;;5035968;28;20199;-72
2022/06/01 02:53:54;;;;;;;11.93;10.70;;;;;;;;;;5038327;28;20547;-73
2022/06/01 02:56:25;;;;;;;11.10;10.00;;;;;;;;;;5041105;28;20632;-72
2022/06/01 02:58:54;;;;;;;11.57;10.37;;;;;;;;;;5036847;28;20230;-73
2022/06/01 03:01:22;;;;;;;10.47;9.47;;;;;;;;;;5034937;28;20208;-73
2022/06/01 03:03:51;;;;;;;11.23;9.90;;;;;;;;;;5041523;28;20242;-73
2022/06/01 03:06:19;;;;;;;11.67;10.50;;;;;;;;;;5054018;28;20207;-73
2022/06/01 03:08:47;;;;;;;11.10;9.67;;;;;;;;;;5038726;28;20713;-74
2022/06/01 03:11:16;;;;;;;10.63;9.53;;;;;;;;;;5042590;28;20249;-73
2022/06/01 03:13:46;;;;;;;11.57;10.37;;;;;;;;;;5040494;28;20612;-73
2022/06/01 03:16:15;;;;;;;12.17;10.07;;;;;;;;;;5053366;28;20250;-73
2022/06/01 03:18:43;;;;;;;11.93;10.07;;;;;;;;;;5042266;28;20236;-73
2022/06/01 03:21:11;;;;;;;11.37;10.00;;;;;;;;;;5043669;28;20219;-72
2022/06/01 03:23:40;;;;;;;10.50;9.50;;;;;;;;;;5042576;28;20619;-73
2022/06/01 03:26:08;;;;;;;10.80;9.70;;;;;;;;;;5038560;28;20258;-72
2022/06/01 03:28:36;;;;;;;10.67;9.67;;;;;;;;;;5037551;28;20234;-73
2022/06/01 03:31:07;;;;;;;10.27;9.37;;;;;;;;;;5039312;28;20204;-72
2022/06/01 03:33:36;;;;;;;12.13;10.90;;;;;;;;;;5035308;28;20663;-73
2022/06/01 03:36:04;;;;;;;13.83;10.07;;;;;;;;;;5035935;28;20737;-72
2022/06/01 03:38:33;;;;;;;12.87;11.27;;;;;;;;;;5036177;28;20671;-72
2022/06/01 03:41:01;;;;;;;12.47;11.37;;;;;;;;;;5032494;28;20573;-72
2022/06/01 03:43:30;;;;;;;12.20;10.97;;;;;;;;;;5042121;28;20211;-72
2022/06/01 03:45:59;;;;;;;12.13;11.03;;;;;;;;;;5035597;28;20239;-72
2022/06/01 03:48:30;;;;;;;12.37;11.27;;;;;;;;;;5035653;28;20318;-72
2022/06/01 03:50:59;;;;;;;12.63;11.40;;;;;;;;;;5033810;28;20208;-72
2022/06/01 03:53:29;;;;;;;12.50;11.27;;;;;;;;;;5039741;28;20224;-73
2022/06/01 03:55:58;;;;;;;12.37;11.17;;;;;;;;;;5040570;28;20211;-72
2022/06/01 03:58:26;;;;;;;12.33;11.23;;;;;;;;;;5028907;28;20246;-72
2022/06/01 04:00:54;;;;;;;11.90;10.57;;;;;;;;;;5034337;28;20200;-73
2022/06/01 04:03:23;;;;;;;12.30;11.00;;;;;;;;;;5040737;28;20318;-72
2022/06/01 04:05:54;;;;;;;10.87;9.87;;;;;;;;;;5048646;28;20654;-72
2022/06/01 04:08:22;;;;;;;11.10;10.00;;;;;;;;;;5034959;28;20215;-72
2022/06/01 04:10:51;;;;;;;11.00;10.00;;;;;;;;;;5037777;28;20219;-72
2022/06/01 04:13:20;;;;;;;11.33;10.33;;;;;;;;;;5038205;28;20226;-72
2022/06/01 04:15:48;;;;;;;11.57;10.37;;;;;;;;;;5039939;28;20203;-72
2022/06/01 04:18:16;;;;;;;11.33;10.23;;;;;;;;;;5035790;28;20223;-71
2022/06/01 04:20:45;;;;;;;10.73;9.63;;;;;;;;;;5045195;28;20658;-72
2022/06/01 04:23:15;;;;;;;9.93;9.00;;;;;;;;;;5039223;28;20211;-72
2022/06/01 04:25:43;;;;;;;10.57;9.47;;;;;;;;;;5031039;28;20208;-72
2022/06/01 04:28:12;;;;;;;10.77;9.67;;;;;;;;;;5036831;28;20224;-72
2022/06/01 04:30:40;;;;;;;9.50;8.53;;;;;;;;;;5032880;28;20849;-73
2022/06/01 04:33:09;;;;;;;10.47;9.43;;;;;;;;;;5040469;28;20260;-72
2022/06/01 04:35:37;;;;;;;9.97;8.97;;;;;;;;;;5047505;28;20211;-72
2022/06/01 04:38:15;;;;;;;10.43;9.53;;;;;;;;;;5031522;28;20223;-72
2022/06/01 04:40:46;;;;;;;10.30;9.33;;;;;;;;;;5032838;28;20226;-72
2022/06/01 04:43:14;;;;;;;10.37;9.37;;;;;;;;;;4689075;28;10000525;-72
2022/06/01 04:45:43;;;;;;;10.33;9.43;;;;;;;;;;5028157;28;20206;-72
2022/06/01 04:48:12;;;;;;;10.13;9.17;;;;;;;;;;5034975;28;20270;-72
2022/06/01 04:50:42;;;;;;;10.73;9.83;;;;;;;;;;5042115;28;20207;-72
2022/06/01 04:53:11;;;;;;;10.67;9.67;;;;;;;;;;5029029;28;20208;-72
2022/06/01 04:55:39;;;;;;;11.57;9.60;;;;;;;;;;5029398;28;20212;-72
2022/06/01 04:58:10;;;;;;;10.73;9.77;;;;;;;;;;5026020;28;20232;-72
2022/06/01 05:00:39;;;;;;;10.37;9.47;;;;;;;;;;5023718;28;20199;-72
2022/06/01 05:03:08;;;;;;;10.57;9.57;;;;;;;;;;5026396;28;20202;-72
2022/06/01 05:05:39;;;;;;;10.57;9.67;;;;;;;;;;5032210;28;20208;-72
2022/06/01 05:08:10;;;;;;;10.10;9.20;;;;;;;;;;5024887;28;20234;-72
2022/06/01 05:10:38;;;;;;;10.10;9.20;;;;;;;;;;5025545;28;20214;-73
2022/06/01 05:13:07;;;;;;;10.70;9.77;;;;;;;;;;5033129;28;20600;-73
2022/06/01 05:15:37;;;;;;;11.43;10.33;;;;;;;;;;5031252;28;20208;-73
2022/06/01 05:18:09;;;;;;;11.50;10.50;;;;;;;;;;5032888;28;20227;-72
2022/06/01 05:20:38;;;;;;;12.33;11.17;;;;;;;;;;5028230;28;20203;-73
2022/06/01 05:23:07;;;;;;;12.27;11.17;;;;;;;;;;5023499;28;20216;-73
2022/06/01 05:25:41;;;;;;;12.80;11.57;;;;;;;;;;5026159;28;20199;-72
2022/06/01 05:28:10;;;;;;;12.60;11.40;;;;;;;;;;5030929;28;20224;-72
2022/06/01 05:30:40;;;;;;;12.80;11.60;;;;;;;;;;5028636;28;20203;-73
2022/06/01 05:33:08;;;;;;;12.37;11.17;;;;;;;;;;5027068;28;20230;-73
2022/06/01 05:35:37;;;;;;;13.13;11.93;;;;;;;;;;5025749;28;20254;-72
2022/06/01 05:38:05;;;;;;;13.43;12.23;;;;;;;;;;5033213;28;20242;-73
2022/06/01 05:40:34;;;;;;;13.37;11.87;;;;;;;;;;5027988;28;20223;-73
2022/06/01 05:43:08;;;;;;;12.10;10.97;;;;;;;;;;5027356;28;20732;-73
2022/06/01 05:45:36;;;;;;;12.33;11.30;;;;;;;;;;5027915;28;20654;-72
2022/06/01 05:48:08;;;;;;;12.77;11.50;;;;;;;;;;5032329;28;20211;-72
2022/06/01 05:50:37;;;;;;;12.77;11.57;;;;;;;;;;5004813;28;20290;-73
2022/06/01 05:53:05;;;;;;;12.37;11.07;;;;;;;;;;5022952;28;20215;-72
2022/06/01 05:55:35;;;;;;;12.63;11.43;;;;;;;;;;5033069;28;20276;-73
2022/06/01 05:58:03;;;;;;;12.80;11.60;;;;;;;;;;5024946;28;20265;-73
2022/06/01 06:00:32;;;;;;;13.07;11.87;;;;;;;;;;5031834;28;20204;-72
2022/06/01 06:03:00;;;;;;;12.43;11.37;;;;;;;;;;5034185;28;20207;-72
2022/06/01 06:08:17;;;;;;;13.10;11.90;;;;;;;;;;5027984;28;20250;-73
2022/06/01 06:10:45;;;;;;;12.80;11.60;;;;;;;;;;5031912;28;20281;-73
2022/06/01 06:13:13;;;;;;;12.17;11.13;;;;;;;;;;5035213;28;20204;-73
2022/06/01 06:15:42;;;;;;;12.90;11.73;;;;;;;;;;5039402;28;20215;-72
2022/06/01 06:18:12;;;;;;;13.57;12.30;;;;;;;;;;5031835;28;20235;-72
2022/06/01 06:20:43;;;;;;;13.10;11.90;;;;;;;;;;5029114;28;20613;-72
2022/06/01 06:23:13;;;;;;;13.27;12.17;;;;;;;;;;5032721;28;20262;-73
2022/06/01 06:25:41;;;;;;;12.87;11.67;;;;;;;;;;5036409;28;20215;-72
2022/06/01 06:28:10;;;;;;;13.47;12.17;;;;;;;;;;5032493;28;20269;-72
2022/06/01 06:30:39;;;;;;;13.03;11.93;;;;;;;;;;5038487;28;20216;-73
2022/06/01 06:33:08;;;;;;;12.63;11.47;;;;;;;;;;5035494;28;20215;-73
2022/06/01 06:35:36;;;;;;;12.97;11.77;;;;;;;;;;5011299;28;20204;-73
2022/06/01 06:38:06;;;;;;;13.30;12.10;;;;;;;;;;5033772;28;20755;-73
2022/06/01 06:40:35;;;;;;;12.67;11.50;;;;;;;;;;5033829;28;20211;-72
2022/06/01 06:43:03;;;;;;;12.67;11.57;;;;;;;;;;5039749;28;20215;-73
2022/06/01 06:45:32;;;;;;;13.57;12.40;;;;;;;;;;5039891;28;20227;-73
2022/06/01 06:48:00;;;;;;;13.20;11.93;;;;;;;;;;5032818;28;20229;-73
2022/06/01 06:50:29;;;;;;;13.40;12.10;;;;;;;;;;5039441;28;20208;-73
2022/06/01 06:53:19;;;;;;;13.30;12.03;;;;;;;;;;5028965;28;20218;-73
2022/06/01 06:55:48;;;;;;;13.53;12.33;;;;;;;;;;5029598;28;20207;-73
2022/06/01 06:58:16;;;;;;;12.43;11.33;;;;;;;;;;5032243;28;20227;-73
2022/06/01 07:00:45;;;;;;;13.07;11.87;;;;;;;;;;5042702;28;20262;-73
2022/06/01 07:03:13;;;;;;;12.70;11.50;;;;;;;;;;5032055;28;20212;-72
2022/06/01 07:08:30;;;;;;;11.83;10.73;;;;;;;;;;5035438;28;20227;-73
2022/06/01 07:11:01;;;;;;;11.73;10.73;;;;;;;;;;5034351;28;20204;-73
2022/06/01 07:13:30;;;;;;;12.37;11.27;;;;;;;;;;5034075;28;20594;-73
2022/06/01 07:16:02;;;;;;;12.07;10.97;;;;;;;;;;5044600;28;20215;-73
2022/06/01 07:18:31;;;;;;;11.70;10.60;;;;;;;;;;5036074;28;20258;-74
2022/06/01 07:20:59;;;;;;;12.60;11.30;;;;;;;;;;5034378;28;20217;-73
2022/06/01 07:23:35;;;;;;;12.07;10.87;;;;;;;;;;5030036;28;20216;-73
2022/06/01 07:26:04;;;;;;;12.17;10.97;;;;;;;;;;5044915;28;20215;-73
2022/06/01 07:28:32;;;;;;;12.47;11.37;;;;;;;;;;5043025;28;20276;-74
2022/06/01 07:31:01;;;;;;;11.93;10.90;;;;;;;;;;5033565;28;20214;-73
2022/06/01 07:33:31;;;;;;;11.63;10.53;;;;;;;;;;5031771;28;20219;-73
2022/06/01 07:35:59;;;;;;;12.43;11.33;;;;;;;;;;5036340;28;20223;-73
2022/06/01 07:44:06;;;;;;;12.27;11.07;;;;;;;;;;5030389;28;20227;-73
2022/06/01 07:46:34;;;;;;;12.23;11.13;;;;;;;;;;5032552;28;20207;-73
2022/06/01 07:49:03;;;;;;;11.90;10.80;;;;;;;;;;5033951;28;20235;-74
2022/06/01 07:51:51;;;;;;;11.20;10.20;;;;;;;;;;5032552;28;20607;-73
2022/06/01 07:54:20;;;;;;;10.47;9.47;;;;;;;;;;5041417;28;20686;-73
2022/06/01 07:56:49;;;;;;;10.47;9.53;;;;;;;;;;5032860;28;20234;-73
2022/06/01 07:59:18;;;;;;;10.17;9.37;;;;;;;;;;5043374;28;20720;-72
2022/06/01 08:01:46;;;;;;;10.40;9.50;;;;;;;;;;5033208;28;20200;-73
2022/06/01 08:04:16;;;;;;;10.93;9.93;;;;;;;;;;5043547;28;20209;-73
2022/06/01 08:06:44;;;;;;;9.33;8.43;;;;;;;;;;5014113;28;20247;-74
2022/06/01 08:09:27;;;;;;;10.00;9.10;;;;;;;;;;5039711;28;20307;-74
2022/06/01 08:14:42;;;;;;;8.33;7.63;;;;;;;;;;5036486;28;20732;-74
2022/06/01 08:17:11;;;;;;;8.20;7.50;;;;;;;;;;5032239;28;20671;-73
2022/06/01 08:19:40;;;;;;;8.37;7.60;;;;;;;;;;5040172;28;20292;-73
2022/06/01 08:22:08;;;;;;;8.17;7.47;;;;;;;;;;5042773;28;20210;-73
2022/06/01 08:24:37;;;;;;;7.80;7.20;;;;;;;;;;5036520;28;20211;-74
2022/06/01 08:27:08;;;;;;;8.40;7.60;;;;;;;;;;5032535;28;20212;-73
2022/06/01 08:29:37;;;;;;;8.48;7.78;;;;;;;;;;5041473;28;20203;-73
2022/06/01 08:32:07;;;;;;;9.68;8.88;;;;;;;;;;5041732;28;20667;-73
2022/06/01 08:34:36;;;;;;;8.98;8.13;;;;;;;;;;5034797;28;20599;-73
2022/06/01 08:37:04;;;;;;;8.70;8.00;;;;;;;;;;5029739;28;20207;-73
2022/06/01 08:39:33;;;;;;;8.90;8.10;;;;;;;;;;5040187;28;20296;-73
2022/06/01 08:42:03;;;;;;;9.60;8.80;;;;;;;;;;5043905;28;20980;-73
2022/06/01 08:44:33;;;;;;;10.10;9.10;;;;;;;;;;5033012;28;20220;-74
2022/06/01 08:47:04;;;;;;;10.07;9.00;;;;;;;;;;5031564;28;20204;-73
2022/06/01 08:49:34;;;;;;;9.10;8.30;;;;;;;;;;5045980;28;20659;-73
2022/06/01 08:52:03;;;;;;;9.27;8.53;;;;;;;;;;5034678;28;20204;-73
2022/06/01 08:54:31;;;;;;;8.87;7.73;;;;;;;;;;5042561;28;20196;-73
2022/06/01 08:57:01;;;;;;;7.50;6.80;;;;;;;;;;5032312;28;20643;-73
2022/06/01 08:59:49;;;;;;;6.70;6.10;;;;;;;;;;5042361;28;20227;-72
2022/06/01 09:02:24;;;;;;;7.70;6.90;;;;;;;;;;5052984;28;20213;-73
2022/06/01 09:04:54;;;;;;;8.77;7.97;;;;;;;;;;5037906;28;20203;-73
2022/06/01 09:07:28;;;;;;;9.40;8.50;;;;;;;;;;5033027;28;20220;-73
2022/06/01 09:10:04;;;;;;;11.33;9.40;;;;;;;;;;5043872;28;20207;-73
2022/06/01 09:12:33;;;;;;;12.07;9.90;;;;;;;;;;5034916;28;20614;-74
2022/06/01 09:15:10;;;;;;;12.13;10.30;;;;;;;;;;5038419;28;20643;-74
2022/06/01 09:17:43;;;;;;;12.63;9.83;;;;;;;;;;5035352;28;20242;-73
2022/06/01 09:23:01;;;;;;;10.77;9.67;;;;;;;;;;5031765;28;20604;-72
2022/06/01 09:25:32;;;;;;;9.10;8.27;;;;;;;;;;5042887;28;20207;-72
2022/06/01 09:28:04;;;;;;;10.53;9.53;;;;;;;;;;5035391;28;20228;-72
2022/06/01 09:30:35;;;;;;;10.07;8.30;;;;;;;;;;5032512;28;20607;-72
2022/06/01 09:33:07;;;;;;;9.10;8.33;;;;;;;;;;5029419;28;20243;-72
2022/06/01 09:35:43;;;;;;;7.90;7.17;;;;;;;;;;5028919;28;20716;-72
2022/06/01 09:38:22;;;;;;;7.80;7.20;;;;;;;;;;5035068;28;20639;-72
2022/06/01 09:41:02;;;;;;;7.53;6.83;;;;;;;;;;5030625;28;20551;-72
2022/06/01 09:43:31;;;;;;;9.13;8.33;;;;;;;;;;5031830;28;20617;-72
2022/06/01 09:46:00;;;;;;;8.60;7.80;;;;;;;;;;5034148;28;20227;-72
2022/06/01 09:48:31;;;;;;;9.77;8.88;;;;;;;;;;5024980;28;20232;-72
2022/06/01 09:51:03;;;;;;;9.85;9.05;;;;;;;;;;5043188;28;20636;-72
2022/06/01 09:53:36;;;;;;;9.43;8.55;;;;;;;;;;5029547;28;20212;-72
2022/06/01 09:56:05;;;;;;;9.07;8.27;;;;;;;;;;5048571;28;20203;-72
2022/06/01 10:07:07;;;;;;;9.45;8.55;;;;;;;;;;4958530;28;20277;-73
2022/06/01 10:09:36;;;;;;;9.07;8.38;;;;;;;;;;5027829;28;20628;-72
2022/06/01 10:12:17;;;;;;;9.30;8.35;;;;;;;;;;5039396;28;20208;-72
2022/06/01 10:14:51;;;;;;;9.13;8.30;;;;;;;;;;5039617;28;20211;-72
2022/06/01 10:17:24;;;;;;;9.93;8.97;;;;;;;;;;5045029;28;20215;-72
2022/06/01 10:19:55;;;;;;;9.43;8.47;;;;;;;;;;5038384;28;20238;-72
2022/06/01 10:22:28;;;;;;;9.43;8.43;;;;;;;;;;5032678;28;20572;-73
2022/06/01 10:24:58;;;;;;;9.30;8.33;;;;;;;;;;5043372;28;20229;-73
2022/06/01 10:27:37;;;;;;;8.15;7.35;;;;;;;;;;5044787;28;20220;-73
2022/06/01 10:30:08;;;;;;;6.63;6.03;;;;;;;;;;5045491;28;20237;-72
2022/06/01 10:32:41;;;;;;;6.78;6.00;;;;;;;;;;5036970;28;20206;-73
2022/06/01 10:35:15;;;;;;;8.37;6.93;;;;;;;;;;5041429;28;20223;-72
2022/06/01 10:37:47;;;;;;;7.87;7.07;;;;;;;;;;5033076;28;20231;-72
2022/06/01 10:40:18;;;;;;;8.40;7.67;;;;;;;;;;5041704;28;20219;-73
2022/06/01 10:45:38;;;;;;;7.70;6.97;;;;;;;;;;5035968;28;20207;-72
2022/06/01 10:48:09;;;;;;;4.50;4.10;;;;;;;;;;5040428;28;20254;-72
2022/06/01 10:50:41;;;;;;;2.50;2.30;;;;;;;;;;5036522;28;20272;-73
2022/06/01 10:53:16;;;;;;;2.00;1.80;;;;;;;;;;5038996;28;20207;-73
2022/06/01 10:55:45;;;;;;;2.30;2.10;;;;;;;;;;5032847;28;20294;-72
2022/06/01 10:58:22;;;;;;;2.80;2.60;;;;;;;;;;5038142;28;20300;-73
2022/06/01 11:00:56;;;;;;;2.67;1.90;;;;;;;;;;5031745;28;20315;-72
2022/06/01 11:03:37;;;;;;;2.50;2.30;;;;;;;;;;5034989;28;20199;-72
2022/06/01 11:06:22;;;;;;;2.13;1.60;;;;;;;;;;5033727;28;20659;-72
2022/06/01 11:08:53;;;;;;;2.10;1.90;;;;;;;;;;5032108;28;20250;-73
2022/06/01 11:11:24;;;;;;;1.90;1.80;;;;;;;;;;5037472;28;20196;-72
2022/06/01 11:14:00;;;;;;;1.70;1.60;;;;;;;;;;5034955;28;20204;-73
2022/06/01 11:16:35;;;;;;;1.50;1.40;;;;;;;;;;5036434;28;20566;-73
2022/06/01 11:19:09;;;;;;;1.80;1.70;;;;;;;;;;5041329;28;20227;-72
2022/06/01 11:21:42;;;;;;;2.40;2.30;;;;;;;;;;5040176;28;20227;-73
2022/06/01 11:24:26;;;;;;;2.83;2.63;;;;;;;;;;5037617;28;20208;-73
2022/06/01 11:27:18;;;;;;;3.07;2.87;;;;;;;;;;5018226;28;20213;-72
2022/06/01 11:29:57;;;;;;;3.40;3.20;;;;;;;;;;5047373;28;20207;-72
2022/06/01 11:32:27;;;;;;;4.13;3.83;;;;;;;;;;5036656;28;20210;-73
2022/06/01 11:35:00;;;;;;;4.20;3.80;;;;;;;;;;5041621;28;20222;-73
2022/06/01 11:37:33;;;;;;;4.63;4.23;;;;;;;;;;5036136;28;20223;-72
2022/06/01 11:40:03;;;;;;;5.07;4.63;;;;;;;;;;5039554;28;20204;-72
2022/06/01 11:42:33;;;;;;;5.40;5.00;;;;;;;;;;5036774;28;20643;-74
2022/06/01 11:45:06;;;;;;;5.35;4.85;;;;;;;;;;5044318;28;20678;-73
2022/06/01 11:47:37;;;;;;;5.93;5.30;;;;;;;;;;5037045;28;20232;-73
2022/06/01 11:50:07;;;;;;;5.25;4.85;;;;;;;;;;5039818;28;20200;-73
2022/06/01 11:52:42;;;;;;;5.20;4.45;;;;;;;;;;5048093;28;20207;-72
2022/06/01 11:55:23;;;;;;;5.93;4.80;;;;;;;;;;5041765;28;20219;-73
2022/06/01 11:57:55;;;;;;;5.88;5.38;;;;;;;;;;5036380;28;20230;-73
2022/06/01 12:00:32;;;;;;;5.28;4.88;;;;;;;;;;5046184;28;20257;-73
2022/06/01 12:03:03;;;;;;;5.30;4.90;;;;;;;;;;5048263;28;20230;-74
2022/06/01 12:05:33;;;;;;;5.80;5.30;;;;;;;;;;5046293;28;20199;-73
2022/06/01 12:08:05;;;;;;;5.72;5.05;;;;;;;;;;5050654;28;20359;-72
2022/06/01 12:10:53;;;;;;;5.55;5.05;;;;;;;;;;5022660;28;20212;-73
2022/06/01 12:13:24;;;;;;;5.05;4.57;;;;;;;;;;5028597;28;20253;-73
2022/06/01 12:16:10;;;;;;;4.90;4.40;;;;;;;;;;5035055;28;20210;-73
2022/06/01 12:18:39;;;;;;;4.53;4.13;;;;;;;;;;5040959;28;20226;-73
2022/06/01 12:21:28;;;;;;;2.88;2.67;;;;;;;;;;5054463;28;20226;-73
2022/06/01 12:29:56;;;;;;;2.30;2.15;;;;;;;;;;5041431;28;20232;-72
2022/06/01 12:32:24;;;;;;;2.60;2.40;;;;;;;;;;5036685;28;20223;-72
2022/06/01 12:35:11;;;;;;;2.10;1.90;;;;;;;;;;4695141;28;9999869;-73
2022/06/01 12:37:42;;;;;;;3.17;2.88;;;;;;;;;;5033060;28;20516;-73
2022/06/01 12:40:17;;;;;;;2.38;2.15;;;;;;;;;;5042821;28;20662;-73
2022/06/01 12:42:52;;;;;;;2.55;2.35;;;;;;;;;;5034074;28;20218;-73
2022/06/01 12:45:22;;;;;;;3.45;3.10;;;;;;;;;;5038815;28;20568;-74
2022/06/01 12:47:53;;;;;;;3.95;2.80;;;;;;;;;;5031401;28;20290;-73
2022/06/01 12:50:23;;;;;;;3.67;2.60;;;;;;;;;;5045862;28;20607;-73
2022/06/01 12:53:09;;;;;;;3.17;2.50;;;;;;;;;;5051102;28;20265;-73
2022/06/01 12:55:39;;;;;;;3.42;3.10;;;;;;;;;;5028267;28;20207;-72
2022/06/01 12:58:10;;;;;;;3.92;3.63;;;;;;;;;;5033577;28;20292;-73
2022/06/01 13:00:46;;;;;;;5.03;4.65;;;;;;;;;;5034359;28;20218;-73
2022/06/01 13:03:15;;;;;;;5.13;4.70;;;;;;;;;;5033002;28;20288;-72
2022/06/01 13:05:49;;;;;;;5.35;3.60;;;;;;;;;;5033296;28;20196;-72
2022/06/01 13:08:19;;;;;;;3.57;3.27;;;;;;;;;;5038658;28;20310;-72
2022/06/01 13:11:12;;;;;;;4.40;3.93;;;;;;;;;;5045885;28;20242;-74
2022/06/01 13:13:43;;;;;;;4.23;3.50;;;;;;;;;;5045111;28;20681;-72
2022/06/01 13:16:11;;;;;;;5.47;4.40;;;;;;;;;;5038065;28;20207;-73
2022/06/01 13:18:42;;;;;;;6.23;3.83;;;;;;;;;;5030191;28;20592;-74
2022/06/01 13:21:14;;;;;;;4.57;4.17;;;;;;;;;;5029752;28;20259;-75
2022/06/01 13:23:49;;;;;;;4.57;3.80;;;;;;;;;;5025070;28;20258;-75
2022/06/01 13:26:23;;;;;;;5.90;3.83;;;;;;;;;;5050841;28;20260;-75
2022/06/01 13:28:52;;;;;;;5.57;3.33;;;;;;;;;;5045113;28;20254;-76
2022/06/01 13:31:20;;;;;;;4.50;3.67;;;;;;;;;;5032758;28;20212;-74
2022/06/01 13:33:50;;;;;;;7.33;4.27;;;;;;;;;;5034290;28;20211;-74
2022/06/01 13:36:27;;;;;;;5.23;4.07;;;;;;;;;;5031886;28;20219;-74
2022/06/01 13:39:02;;;;;;;4.13;3.83;;;;;;;;;;5040880;28;20249;-74
2022/06/01 13:41:35;;;;;;;4.20;3.80;;;;;;;;;;5030782;28;20253;-73
2022/06/01 13:44:13;;;;;;;4.40;4.10;;;;;;;;;;5041026;28;20214;-73
2022/06/01 13:46:42;;;;;;;4.17;3.70;;;;;;;;;;5051801;28;20246;-73
2022/06/01 13:49:12;;;;;;;3.20;3.00;;;;;;;;;;5043807;28;20235;-72
2022/06/01 13:51:42;;;;;;;3.63;3.33;;;;;;;;;;5028671;28;20671;-72
2022/06/01 13:54:21;;;;;;;3.43;3.17;;;;;;;;;;5040777;28;20214;-73
2022/06/01 13:56:51;;;;;;;2.93;2.70;;;;;;;;;;5010951;28;20718;-73
2022/06/01 13:59:30;;;;;;;3.50;3.20;;;;;;;;;;5034580;28;20227;-73
2022/06/01 14:02:02;;;;;;;2.47;2.33;;;;;;;;;;5031168;28;20223;-72
2022/06/01 14:04:38;;;;;;;2.77;2.57;;;;;;;;;;5020684;28;20790;-72
2022/06/01 14:07:07;;;;;;;2.93;2.50;;;;;;;;;;5028996;28;20203;-72
2022/06/01 14:09:42;;;;;;;3.07;2.57;;;;;;;;;;5041746;28;20274;-72
2022/06/01 14:12:12;;;;;;;2.73;2.53;;;;;;;;;;5028274;28;20251;-71
2022/06/01 14:14:42;;;;;;;3.40;2.40;;;;;;;;;;5039598;28;20207;-73
2022/06/01 14:17:12;;;;;;;2.50;2.30;;;;;;;;;;5023556;28;20203;-72
2022/06/01 14:19:40;;;;;;;2.87;2.40;;;;;;;;;;5031528;28;20666;-72
2022/06/01 14:22:10;;;;;;;2.20;2.10;;;;;;;;;;5028858;28;20220;-72
2022/06/01 14:30:13;;;;;;;2.40;2.20;;;;;;;;;;5037314;28;20211;-73
2022/06/01 14:32:44;;;;;;;2.03;1.93;;;;;;;;;;5035233;28;20211;-72
2022/06/01 14:35:12;;;;;;;2.50;2.07;;;;;;;;;;5023370;28;20214;-73
2022/06/01 14:37:41;;;;;;;2.30;2.13;;;;;;;;;;5015274;28;20231;-73
2022/06/01 14:40:10;;;;;;;2.50;2.30;;;;;;;;;;5028003;28;20257;-72
2022/06/01 14:42:40;;;;;;;2.10;2.00;;;;;;;;;;5024291;28;20318;-73
2022/06/01 14:45:09;;;;;;;2.00;1.90;;;;;;;;;;5037436;28;20208;-72
2022/06/01 14:47:38;;;;;;;1.97;1.87;;;;;;;;;;5038374;28;20227;-73
2022/06/01 14:50:07;;;;;;;2.13;1.93;;;;;;;;;;5044366;28;20260;-73
2022/06/01 14:52:48;;;;;;;1.90;1.80;;;;;;;;;;5029166;28;20223;-73
2022/06/01 14:55:26;;;;;;;1.77;1.67;;;;;;;;;;5034528;28;20628;-73
2022/06/01 14:57:55;;;;;;;1.63;1.53;;;;;;;;;;5030598;28;20395;-72
2022/06/01 15:00:24;;;;;;;2.27;1.70;;;;;;;;;;5041642;28;20218;-74
2022/06/01 15:02:57;;;;;;;2.00;1.60;;;;;;;;;;5035202;28;20258;-73
2022/06/01 15:05:27;;;;;;;2.27;2.07;;;;;;;;;;5037123;28;20200;-73
2022/06/01 15:07:57;;;;;;;2.20;2.07;;;;;;;;;;5032911;28;20231;-73
2022/06/01 15:10:25;;;;;;;2.30;2.10;;;;;;;;;;5036046;28;20215;-73
2022/06/01 15:12:56;;;;;;;2.47;2.27;;;;;;;;;;5031704;28;20218;-72
2022/06/01 15:15:24;;;;;;;2.60;2.40;;;;;;;;;;5025762;28;20580;-73
2022/06/01 15:17:53;;;;;;;2.80;1.97;;;;;;;;;;5028621;28;20304;-73
2022/06/01 15:20:21;;;;;;;2.00;1.90;;;;;;;;;;5035624;28;20203;-73
2022/06/01 15:22:50;;;;;;;2.20;2.00;;;;;;;;;;5030960;28;20717;-73
2022/06/01 15:25:20;;;;;;;2.73;2.10;;;;;;;;;;5031949;28;20195;-72
2022/06/01 15:27:50;;;;;;;1.80;1.70;;;;;;;;;;5019066;28;20238;-73
2022/06/01 15:41:28;;;;;;;2.10;1.90;;;;;;;;;;5018855;28;20603;-73
2022/06/01 15:43:57;;;;;;;2.50;1.90;;;;;;;;;;5030558;28;20596;-73
2022/06/01 15:46:30;;;;;;;2.20;1.57;;;;;;;;;;5033600;28;20216;-73
2022/06/01 15:49:02;;;;;;;1.80;1.70;;;;;;;;;;5030061;28;20255;-73
2022/06/01 15:51:31;;;;;;;1.70;1.60;;;;;;;;;;5031084;28;20214;-73
2022/06/01 16:05:27;;;;;;;1.40;1.30;;;;;;;;;;4924173;22;20314;-72